sensor_id;sensor_type;location;lat;lon;timestamp;P1;durP1;ratioP1;P2;durP2;ratioP2
33794;SDS011;51430;52.242;21.118;2022-09-09T00:04:30;7.00;;;6.20;;
33794;SDS011;51430;52.242;21.118;2022-09-09T00:09:47;10.90;;;6.90;;
33794;SDS011;51430;52.242;21.118;2022-09-09T00:12:25;10.60;;;6.40;;
33794;SDS011;51430;52.242;21.118;2022-09-09T00:17:58;9.90;;;6.70;;
33794;SDS011;51430;52.242;21.118;2022-09-09T00:20:42;8.70;;;6.70;;
33794;SDS011;51430;52.242;21.118;2022-09-09T00:23:25;8.40;;;6.20;;
33794;SDS011;51430;52.242;21.118;2022-09-09T00:26:02;11.00;;;6.60;;
33794;SDS011;51430;52.242;21.118;2022-09-09T00:31:26;14.10;;;7.10;;
33794;SDS011;51430;52.242;21.118;2022-09-09T00:34:03;10.80;;;7.30;;
33794;SDS011;51430;52.242;21.118;2022-09-09T00:36:41;10.80;;;7.00;;
33794;SDS011;51430;52.242;21.118;2022-09-09T00:41:54;21.70;;;7.10;;
33794;SDS011;51430;52.242;21.118;2022-09-09T00:44:37;10.10;;;7.20;;
33794;SDS011;51430;52.242;21.118;2022-09-09T00:50:00;10.10;;;7.10;;
33794;SDS011;51430;52.242;21.118;2022-09-09T00:52:47;9.60;;;7.10;;
33794;SDS011;51430;52.242;21.118;2022-09-09T00:58:37;12.70;;;7.10;;
33794;SDS011;51430;52.242;21.118;2022-09-09T01:01:07;10.80;;;7.00;;
33794;SDS011;51430;52.242;21.118;2022-09-09T01:03:47;10.70;;;7.80;;
33794;SDS011;51430;52.242;21.118;2022-09-09T01:12:14;9.90;;;7.10;;
33794;SDS011;51430;52.242;21.118;2022-09-09T01:14:49;9.60;;;6.90;;
33794;SDS011;51430;52.242;21.118;2022-09-09T01:17:27;12.30;;;7.80;;
33794;SDS011;51430;52.242;21.118;2022-09-09T01:23:00;11.10;;;7.30;;
33794;SDS011;51430;52.242;21.118;2022-09-09T01:28:54;11.80;;;7.70;;
33794;SDS011;51430;52.242;21.118;2022-09-09T01:31:30;11.70;;;7.50;;
33794;SDS011;51430;52.242;21.118;2022-09-09T01:34:12;9.90;;;7.40;;
33794;SDS011;51430;52.242;21.118;2022-09-09T01:39:14;11.20;;;7.80;;
33794;SDS011;51430;52.242;21.118;2022-09-09T01:41:42;12.70;;;8.40;;
33794;SDS011;51430;52.242;21.118;2022-09-09T01:44:10;12.40;;;8.00;;
33794;SDS011;51430;52.242;21.118;2022-09-09T01:46:39;11.20;;;8.40;;
33794;SDS011;51430;52.242;21.118;2022-09-09T01:49:07;11.30;;;8.70;;
33794;SDS011;51430;52.242;21.118;2022-09-09T01:51:36;10.50;;;7.70;;
33794;SDS011;51430;52.242;21.118;2022-09-09T01:54:09;11.10;;;8.60;;
33794;SDS011;51430;52.242;21.118;2022-09-09T01:59:18;13.20;;;8.80;;
33794;SDS011;51430;52.242;21.118;2022-09-09T02:07:49;11.20;;;8.50;;
33794;SDS011;51430;52.242;21.118;2022-09-09T02:10:32;11.80;;;8.60;;
33794;SDS011;51430;52.242;21.118;2022-09-09T02:13:14;13.90;;;8.30;;
33794;SDS011;51430;52.242;21.118;2022-09-09T02:18:41;13.20;;;9.10;;
33794;SDS011;51430;52.242;21.118;2022-09-09T02:21:15;11.90;;;8.90;;
33794;SDS011;51430;52.242;21.118;2022-09-09T02:23:46;10.90;;;8.60;;
33794;SDS011;51430;52.242;21.118;2022-09-09T02:26:21;11.70;;;9.00;;
33794;SDS011;51430;52.242;21.118;2022-09-09T02:28:51;15.70;;;8.90;;
33794;SDS011;51430;52.242;21.118;2022-09-09T02:31:26;12.00;;;9.80;;
33794;SDS011;51430;52.242;21.118;2022-09-09T02:33:56;11.70;;;9.20;;
33794;SDS011;51430;52.242;21.118;2022-09-09T02:36:29;11.70;;;8.80;;
33794;SDS011;51430;52.242;21.118;2022-09-09T02:39:01;13.20;;;9.30;;
33794;SDS011;51430;52.242;21.118;2022-09-09T02:41:33;13.50;;;10.40;;
33794;SDS011;51430;52.242;21.118;2022-09-09T02:44:11;11.90;;;9.90;;
33794;SDS011;51430;52.242;21.118;2022-09-09T02:46:48;12.70;;;10.00;;
33794;SDS011;51430;52.242;21.118;2022-09-09T02:49:30;13.00;;;10.30;;
33794;SDS011;51430;52.242;21.118;2022-09-09T02:55:41;12.50;;;9.70;;
33794;SDS011;51430;52.242;21.118;2022-09-09T02:58:15;14.20;;;9.90;;
33794;SDS011;51430;52.242;21.118;2022-09-09T03:00:46;12.40;;;9.90;;
33794;SDS011;51430;52.242;21.118;2022-09-09T03:03:16;15.20;;;9.60;;
33794;SDS011;51430;52.242;21.118;2022-09-09T03:05:45;11.90;;;9.40;;
33794;SDS011;51430;52.242;21.118;2022-09-09T03:08:14;13.10;;;9.50;;
33794;SDS011;51430;52.242;21.118;2022-09-09T03:10:42;14.30;;;9.90;;
33794;SDS011;51430;52.242;21.118;2022-09-09T03:13:10;13.80;;;9.50;;
33794;SDS011;51430;52.242;21.118;2022-09-09T03:15:40;12.90;;;9.70;;
33794;SDS011;51430;52.242;21.118;2022-09-09T03:18:09;13.90;;;9.40;;
33794;SDS011;51430;52.242;21.118;2022-09-09T03:20:37;14.40;;;9.80;;
33794;SDS011;51430;52.242;21.118;2022-09-09T03:23:06;13.90;;;9.30;;
33794;SDS011;51430;52.242;21.118;2022-09-09T03:25:39;12.00;;;9.50;;
33794;SDS011;51430;52.242;21.118;2022-09-09T03:28:07;12.40;;;9.70;;
33794;SDS011;51430;52.242;21.118;2022-09-09T03:30:35;10.60;;;8.60;;
33794;SDS011;51430;52.242;21.118;2022-09-09T03:33:03;12.20;;;10.10;;
33794;SDS011;51430;52.242;21.118;2022-09-09T03:35:31;12.50;;;9.20;;
33794;SDS011;51430;52.242;21.118;2022-09-09T03:37:59;11.00;;;8.80;;
33794;SDS011;51430;52.242;21.118;2022-09-09T03:40:28;13.40;;;9.20;;
33794;SDS011;51430;52.242;21.118;2022-09-09T03:42:56;12.00;;;8.60;;
33794;SDS011;51430;52.242;21.118;2022-09-09T03:45:25;13.90;;;8.40;;
33794;SDS011;51430;52.242;21.118;2022-09-09T03:47:53;12.00;;;9.10;;
33794;SDS011;51430;52.242;21.118;2022-09-09T03:50:22;12.10;;;8.50;;
33794;SDS011;51430;52.242;21.118;2022-09-09T03:52:50;9.70;;;7.60;;
33794;SDS011;51430;52.242;21.118;2022-09-09T03:55:19;11.80;;;8.90;;
33794;SDS011;51430;52.242;21.118;2022-09-09T03:57:47;11.50;;;8.60;;
33794;SDS011;51430;52.242;21.118;2022-09-09T04:00:15;10.90;;;8.10;;
33794;SDS011;51430;52.242;21.118;2022-09-09T04:02:43;10.30;;;8.30;;
33794;SDS011;51430;52.242;21.118;2022-09-09T04:05:11;13.90;;;8.00;;
33794;SDS011;51430;52.242;21.118;2022-09-09T04:07:39;9.50;;;7.40;;
33794;SDS011;51430;52.242;21.118;2022-09-09T04:10:08;10.00;;;7.50;;
33794;SDS011;51430;52.242;21.118;2022-09-09T04:12:36;7.60;;;6.80;;
33794;SDS011;51430;52.242;21.118;2022-09-09T04:15:04;10.60;;;7.60;;
33794;SDS011;51430;52.242;21.118;2022-09-09T04:17:33;8.10;;;7.00;;
33794;SDS011;51430;52.242;21.118;2022-09-09T04:20:01;9.80;;;7.20;;
33794;SDS011;51430;52.242;21.118;2022-09-09T04:22:29;8.20;;;7.40;;
33794;SDS011;51430;52.242;21.118;2022-09-09T04:24:59;8.00;;;7.00;;
33794;SDS011;51430;52.242;21.118;2022-09-09T04:27:28;11.60;;;7.60;;
33794;SDS011;51430;52.242;21.118;2022-09-09T04:29:56;8.70;;;7.10;;
33794;SDS011;51430;52.242;21.118;2022-09-09T04:32:27;7.30;;;6.60;;
33794;SDS011;51430;52.242;21.118;2022-09-09T04:34:55;8.10;;;7.20;;
33794;SDS011;51430;52.242;21.118;2022-09-09T04:37:23;7.90;;;7.10;;
33794;SDS011;51430;52.242;21.118;2022-09-09T04:39:52;9.60;;;6.60;;
33794;SDS011;51430;52.242;21.118;2022-09-09T04:42:20;8.80;;;6.90;;
33794;SDS011;51430;52.242;21.118;2022-09-09T04:44:49;9.40;;;6.90;;
33794;SDS011;51430;52.242;21.118;2022-09-09T04:47:17;8.90;;;6.60;;
33794;SDS011;51430;52.242;21.118;2022-09-09T04:49:45;8.40;;;6.70;;
33794;SDS011;51430;52.242;21.118;2022-09-09T04:52:13;8.30;;;6.70;;
33794;SDS011;51430;52.242;21.118;2022-09-09T04:54:44;8.90;;;6.90;;
33794;SDS011;51430;52.242;21.118;2022-09-09T04:57:13;9.40;;;6.20;;
33794;SDS011;51430;52.242;21.118;2022-09-09T04:59:45;8.70;;;6.20;;
33794;SDS011;51430;52.242;21.118;2022-09-09T05:02:13;6.70;;;6.00;;
33794;SDS011;51430;52.242;21.118;2022-09-09T05:04:43;8.90;;;6.80;;
33794;SDS011;51430;52.242;21.118;2022-09-09T05:07:11;7.00;;;6.30;;
33794;SDS011;51430;52.242;21.118;2022-09-09T05:09:39;7.90;;;6.40;;
33794;SDS011;51430;52.242;21.118;2022-09-09T05:12:07;6.60;;;5.70;;
33794;SDS011;51430;52.242;21.118;2022-09-09T05:14:36;10.40;;;6.20;;
33794;SDS011;51430;52.242;21.118;2022-09-09T05:17:04;8.50;;;6.40;;
33794;SDS011;51430;52.242;21.118;2022-09-09T05:19:32;8.10;;;6.50;;
33794;SDS011;51430;52.242;21.118;2022-09-09T05:22:00;8.40;;;5.90;;
33794;SDS011;51430;52.242;21.118;2022-09-09T05:24:29;6.60;;;5.60;;
33794;SDS011;51430;52.242;21.118;2022-09-09T05:27:00;7.50;;;6.20;;
33794;SDS011;51430;52.242;21.118;2022-09-09T05:29:30;8.50;;;6.30;;
33794;SDS011;51430;52.242;21.118;2022-09-09T05:32:01;8.30;;;6.40;;
33794;SDS011;51430;52.242;21.118;2022-09-09T05:34:29;8.00;;;6.20;;
33794;SDS011;51430;52.242;21.118;2022-09-09T05:36:57;5.80;;;5.30;;
33794;SDS011;51430;52.242;21.118;2022-09-09T05:39:26;6.10;;;5.50;;
33794;SDS011;51430;52.242;21.118;2022-09-09T05:41:54;8.50;;;5.60;;
33794;SDS011;51430;52.242;21.118;2022-09-09T05:44:23;6.70;;;5.40;;
33794;SDS011;51430;52.242;21.118;2022-09-09T05:46:55;8.60;;;5.30;;
33794;SDS011;51430;52.242;21.118;2022-09-09T05:49:24;7.50;;;5.70;;
33794;SDS011;51430;52.242;21.118;2022-09-09T05:51:53;9.40;;;5.60;;
33794;SDS011;51430;52.242;21.118;2022-09-09T05:54:21;10.70;;;5.90;;
33794;SDS011;51430;52.242;21.118;2022-09-09T05:56:49;9.10;;;5.60;;
33794;SDS011;51430;52.242;21.118;2022-09-09T05:59:19;6.10;;;5.50;;
33794;SDS011;51430;52.242;21.118;2022-09-09T06:01:48;9.90;;;5.90;;
33794;SDS011;51430;52.242;21.118;2022-09-09T06:04:16;5.90;;;5.30;;
33794;SDS011;51430;52.242;21.118;2022-09-09T06:06:44;6.80;;;5.40;;
33794;SDS011;51430;52.242;21.118;2022-09-09T06:09:13;6.00;;;5.40;;
33794;SDS011;51430;52.242;21.118;2022-09-09T06:11:41;6.80;;;5.70;;
33794;SDS011;51430;52.242;21.118;2022-09-09T06:14:11;9.40;;;6.20;;
33794;SDS011;51430;52.242;21.118;2022-09-09T06:16:40;6.30;;;5.70;;
33794;SDS011;51430;52.242;21.118;2022-09-09T06:19:10;6.40;;;5.30;;
33794;SDS011;51430;52.242;21.118;2022-09-09T06:21:40;7.10;;;5.50;;
33794;SDS011;51430;52.242;21.118;2022-09-09T06:24:10;8.70;;;6.20;;
33794;SDS011;51430;52.242;21.118;2022-09-09T06:26:41;7.30;;;6.40;;
33794;SDS011;51430;52.242;21.118;2022-09-09T06:29:10;7.20;;;6.20;;
33794;SDS011;51430;52.242;21.118;2022-09-09T06:31:38;6.60;;;5.90;;
33794;SDS011;51430;52.242;21.118;2022-09-09T06:34:07;7.20;;;6.50;;
33794;SDS011;51430;52.242;21.118;2022-09-09T06:36:37;7.00;;;6.30;;
33794;SDS011;51430;52.242;21.118;2022-09-09T06:39:07;9.60;;;7.00;;
33794;SDS011;51430;52.242;21.118;2022-09-09T06:41:41;8.50;;;6.80;;
33794;SDS011;51430;52.242;21.118;2022-09-09T06:44:10;7.70;;;6.90;;
33794;SDS011;51430;52.242;21.118;2022-09-09T06:46:43;9.90;;;7.20;;
33794;SDS011;51430;52.242;21.118;2022-09-09T06:49:12;9.10;;;7.40;;
33794;SDS011;51430;52.242;21.118;2022-09-09T06:51:40;9.30;;;7.70;;
33794;SDS011;51430;52.242;21.118;2022-09-09T06:54:11;8.10;;;7.30;;
33794;SDS011;51430;52.242;21.118;2022-09-09T06:56:40;8.70;;;7.20;;
33794;SDS011;51430;52.242;21.118;2022-09-09T06:59:11;8.50;;;7.20;;
33794;SDS011;51430;52.242;21.118;2022-09-09T07:01:41;8.50;;;7.70;;
33794;SDS011;51430;52.242;21.118;2022-09-09T07:04:20;9.30;;;7.60;;
33794;SDS011;51430;52.242;21.118;2022-09-09T07:06:48;10.30;;;8.50;;
33794;SDS011;51430;52.242;21.118;2022-09-09T07:09:16;9.30;;;8.20;;
33794;SDS011;51430;52.242;21.118;2022-09-09T07:11:48;9.90;;;8.40;;
33794;SDS011;51430;52.242;21.118;2022-09-09T07:14:20;11.50;;;8.40;;
33794;SDS011;51430;52.242;21.118;2022-09-09T07:16:50;9.00;;;8.00;;
33794;SDS011;51430;52.242;21.118;2022-09-09T07:19:18;9.60;;;8.60;;
33794;SDS011;51430;52.242;21.118;2022-09-09T07:21:46;11.30;;;8.70;;
33794;SDS011;51430;52.242;21.118;2022-09-09T07:24:14;11.30;;;8.40;;
33794;SDS011;51430;52.242;21.118;2022-09-09T07:26:43;12.10;;;8.90;;
33794;SDS011;51430;52.242;21.118;2022-09-09T07:29:11;9.80;;;8.80;;
33794;SDS011;51430;52.242;21.118;2022-09-09T07:31:47;12.30;;;8.80;;
33794;SDS011;51430;52.242;21.118;2022-09-09T07:34:16;10.90;;;9.50;;
33794;SDS011;51430;52.242;21.118;2022-09-09T07:36:44;11.70;;;9.30;;
33794;SDS011;51430;52.242;21.118;2022-09-09T07:39:14;10.60;;;8.90;;
33794;SDS011;51430;52.242;21.118;2022-09-09T07:41:45;12.60;;;9.30;;
33794;SDS011;51430;52.242;21.118;2022-09-09T07:44:17;12.50;;;9.40;;
33794;SDS011;51430;52.242;21.118;2022-09-09T07:46:49;9.40;;;8.40;;
33794;SDS011;51430;52.242;21.118;2022-09-09T07:49:17;11.40;;;9.20;;
33794;SDS011;51430;52.242;21.118;2022-09-09T07:51:55;12.10;;;9.20;;
33794;SDS011;51430;52.242;21.118;2022-09-09T07:54:23;10.40;;;9.00;;
33794;SDS011;51430;52.242;21.118;2022-09-09T07:56:52;11.00;;;9.40;;
33794;SDS011;51430;52.242;21.118;2022-09-09T07:59:20;10.50;;;9.50;;
33794;SDS011;51430;52.242;21.118;2022-09-09T08:01:49;11.60;;;9.20;;
33794;SDS011;51430;52.242;21.118;2022-09-09T08:04:21;10.70;;;8.70;;
33794;SDS011;51430;52.242;21.118;2022-09-09T08:06:55;12.80;;;9.60;;
33794;SDS011;51430;52.242;21.118;2022-09-09T08:09:25;12.10;;;9.90;;
33794;SDS011;51430;52.242;21.118;2022-09-09T08:11:57;10.00;;;9.00;;
33794;SDS011;51430;52.242;21.118;2022-09-09T08:14:26;12.20;;;9.40;;
33794;SDS011;51430;52.242;21.118;2022-09-09T08:16:54;10.40;;;9.30;;
33794;SDS011;51430;52.242;21.118;2022-09-09T08:19:24;10.90;;;9.00;;
33794;SDS011;51430;52.242;21.118;2022-09-09T08:21:52;12.60;;;9.40;;
33794;SDS011;51430;52.242;21.118;2022-09-09T08:24:21;11.10;;;9.40;;
33794;SDS011;51430;52.242;21.118;2022-09-09T08:26:51;11.30;;;9.60;;
33794;SDS011;51430;52.242;21.118;2022-09-09T08:29:19;10.80;;;9.60;;
33794;SDS011;51430;52.242;21.118;2022-09-09T08:31:55;14.40;;;9.60;;
33794;SDS011;51430;52.242;21.118;2022-09-09T08:34:33;11.30;;;10.00;;
33794;SDS011;51430;52.242;21.118;2022-09-09T08:37:08;11.50;;;9.70;;
33794;SDS011;51430;52.242;21.118;2022-09-09T08:39:36;14.00;;;9.60;;
33794;SDS011;51430;52.242;21.118;2022-09-09T08:42:17;11.90;;;9.90;;
33794;SDS011;51430;52.242;21.118;2022-09-09T08:45:03;13.10;;;10.20;;
33794;SDS011;51430;52.242;21.118;2022-09-09T08:50:46;12.10;;;10.60;;
33794;SDS011;51430;52.242;21.118;2022-09-09T08:53:32;11.10;;;9.80;;
33794;SDS011;51430;52.242;21.118;2022-09-09T08:56:09;14.50;;;12.00;;
33794;SDS011;51430;52.242;21.118;2022-09-09T08:58:48;14.20;;;11.70;;
33794;SDS011;51430;52.242;21.118;2022-09-09T09:04:33;12.50;;;11.20;;
33794;SDS011;51430;52.242;21.118;2022-09-09T09:13:06;14.80;;;11.10;;
33794;SDS011;51430;52.242;21.118;2022-09-09T09:15:44;15.40;;;10.90;;
33794;SDS011;51430;52.242;21.118;2022-09-09T09:18:16;16.90;;;12.60;;
33794;SDS011;51430;52.242;21.118;2022-09-09T09:23:42;12.10;;;10.80;;
33794;SDS011;51430;52.242;21.118;2022-09-09T09:26:33;18.00;;;12.10;;
33794;SDS011;51430;52.242;21.118;2022-09-09T09:29:13;15.40;;;11.80;;
33794;SDS011;51430;52.242;21.118;2022-09-09T09:31:48;15.90;;;12.10;;
33794;SDS011;51430;52.242;21.118;2022-09-09T09:34:40;14.50;;;12.00;;
33794;SDS011;51430;52.242;21.118;2022-09-09T09:37:12;16.30;;;12.90;;
33794;SDS011;51430;52.242;21.118;2022-09-09T09:39:48;16.80;;;12.80;;
33794;SDS011;51430;52.242;21.118;2022-09-09T09:42:32;16.20;;;13.70;;
33794;SDS011;51430;52.242;21.118;2022-09-09T09:45:22;15.60;;;12.50;;
33794;SDS011;51430;52.242;21.118;2022-09-09T09:47:58;17.40;;;13.80;;
33794;SDS011;51430;52.242;21.118;2022-09-09T09:50:33;15.70;;;13.60;;
33794;SDS011;51430;52.242;21.118;2022-09-09T09:53:03;17.30;;;13.40;;
33794;SDS011;51430;52.242;21.118;2022-09-09T09:55:33;17.90;;;14.00;;
33794;SDS011;51430;52.242;21.118;2022-09-09T09:58:04;19.70;;;14.40;;
33794;SDS011;51430;52.242;21.118;2022-09-09T10:00:34;18.60;;;15.10;;
33794;SDS011;51430;52.242;21.118;2022-09-09T10:03:13;18.70;;;12.80;;
33794;SDS011;51430;52.242;21.118;2022-09-09T10:05:51;14.10;;;12.30;;
33794;SDS011;51430;52.242;21.118;2022-09-09T10:08:19;17.00;;;13.60;;
33794;SDS011;51430;52.242;21.118;2022-09-09T10:10:57;17.30;;;14.20;;
33794;SDS011;51430;52.242;21.118;2022-09-09T10:16:38;18.90;;;14.20;;
33794;SDS011;51430;52.242;21.118;2022-09-09T10:19:18;17.40;;;14.50;;
33794;SDS011;51430;52.242;21.118;2022-09-09T10:35:27;17.90;;;14.40;;
33794;SDS011;51430;52.242;21.118;2022-09-09T10:46:46;17.60;;;14.40;;
33794;SDS011;51430;52.242;21.118;2022-09-09T10:52:38;17.10;;;14.50;;
33794;SDS011;51430;52.242;21.118;2022-09-09T10:55:19;18.40;;;14.90;;
33794;SDS011;51430;52.242;21.118;2022-09-09T10:57:57;19.20;;;15.80;;
33794;SDS011;51430;52.242;21.118;2022-09-09T11:03:17;23.10;;;16.20;;
33794;SDS011;51430;52.242;21.118;2022-09-09T11:05:51;22.90;;;16.90;;
33794;SDS011;51430;52.242;21.118;2022-09-09T11:08:26;19.20;;;16.30;;
33794;SDS011;51430;52.242;21.118;2022-09-09T11:11:03;19.80;;;16.20;;
33794;SDS011;51430;52.242;21.118;2022-09-09T11:16:05;21.30;;;17.40;;
33794;SDS011;51430;52.242;21.118;2022-09-09T11:18:38;25.50;;;18.20;;
33794;SDS011;51430;52.242;21.118;2022-09-09T11:21:10;21.20;;;18.30;;
33794;SDS011;51430;52.242;21.118;2022-09-09T11:24:15;22.40;;;18.30;;
33794;SDS011;51430;52.242;21.118;2022-09-09T11:26:51;22.90;;;19.20;;
33794;SDS011;51430;52.242;21.118;2022-09-09T11:32:44;26.20;;;18.50;;
33794;SDS011;51430;52.242;21.118;2022-09-09T11:41:13;25.10;;;19.40;;
33794;SDS011;51430;52.242;21.118;2022-09-09T11:43:51;23.70;;;19.80;;
33794;SDS011;51430;52.242;21.118;2022-09-09T11:46:22;26.40;;;20.10;;
33794;SDS011;51430;52.242;21.118;2022-09-09T11:49:05;22.40;;;19.00;;
33794;SDS011;51430;52.242;21.118;2022-09-09T11:51:35;26.80;;;21.10;;
33794;SDS011;51430;52.242;21.118;2022-09-09T11:54:26;27.60;;;21.20;;
33794;SDS011;51430;52.242;21.118;2022-09-09T11:56:59;28.00;;;20.90;;
33794;SDS011;51430;52.242;21.118;2022-09-09T11:59:28;27.10;;;20.50;;
33794;SDS011;51430;52.242;21.118;2022-09-09T12:01:59;23.50;;;20.70;;
33794;SDS011;51430;52.242;21.118;2022-09-09T12:04:42;26.80;;;20.40;;
33794;SDS011;51430;52.242;21.118;2022-09-09T12:07:33;26.70;;;21.30;;
33794;SDS011;51430;52.242;21.118;2022-09-09T12:10:19;28.80;;;21.60;;
33794;SDS011;51430;52.242;21.118;2022-09-09T12:13:16;25.80;;;21.30;;
33794;SDS011;51430;52.242;21.118;2022-09-09T12:18:42;27.00;;;21.90;;
33794;SDS011;51430;52.242;21.118;2022-09-09T12:21:21;26.00;;;20.60;;
33794;SDS011;51430;52.242;21.118;2022-09-09T12:24:10;27.10;;;19.80;;
33794;SDS011;51430;52.242;21.118;2022-09-09T12:26:41;24.70;;;19.40;;
33794;SDS011;51430;52.242;21.118;2022-09-09T12:29:35;26.30;;;19.70;;
33794;SDS011;51430;52.242;21.118;2022-09-09T12:32:18;28.70;;;19.60;;
33794;SDS011;51430;52.242;21.118;2022-09-09T12:34:55;27.80;;;20.70;;
33794;SDS011;51430;52.242;21.118;2022-09-09T12:40:00;27.90;;;21.60;;
33794;SDS011;51430;52.242;21.118;2022-09-09T12:42:39;27.40;;;21.20;;
33794;SDS011;51430;52.242;21.118;2022-09-09T12:45:18;28.10;;;21.10;;
33794;SDS011;51430;52.242;21.118;2022-09-09T12:47:53;28.00;;;20.60;;
33794;SDS011;51430;52.242;21.118;2022-09-09T12:50:29;26.70;;;21.10;;
33794;SDS011;51430;52.242;21.118;2022-09-09T12:58:31;27.00;;;19.70;;
33794;SDS011;51430;52.242;21.118;2022-09-09T13:01:03;27.60;;;20.80;;
33794;SDS011;51430;52.242;21.118;2022-09-09T13:03:33;24.10;;;20.10;;
33794;SDS011;51430;52.242;21.118;2022-09-09T13:06:22;27.20;;;20.80;;
33794;SDS011;51430;52.242;21.118;2022-09-09T13:08:57;23.60;;;18.70;;
33794;SDS011;51430;52.242;21.118;2022-09-09T13:11:29;29.50;;;20.60;;
33794;SDS011;51430;52.242;21.118;2022-09-09T13:14:04;28.50;;;20.10;;
33794;SDS011;51430;52.242;21.118;2022-09-09T13:16:34;31.60;;;19.40;;
33794;SDS011;51430;52.242;21.118;2022-09-09T13:19:10;27.90;;;19.90;;
33794;SDS011;51430;52.242;21.118;2022-09-09T13:21:43;24.60;;;18.40;;
33794;SDS011;51430;52.242;21.118;2022-09-09T13:24:26;28.20;;;19.30;;
33794;SDS011;51430;52.242;21.118;2022-09-09T13:29:58;27.00;;;20.60;;
33794;SDS011;51430;52.242;21.118;2022-09-09T13:32:27;29.10;;;20.50;;
33794;SDS011;51430;52.242;21.118;2022-09-09T13:34:58;28.20;;;20.40;;
33794;SDS011;51430;52.242;21.118;2022-09-09T13:37:37;27.80;;;19.80;;
33794;SDS011;51430;52.242;21.118;2022-09-09T13:40:18;25.50;;;19.60;;
33794;SDS011;51430;52.242;21.118;2022-09-09T13:42:53;28.40;;;20.10;;
33794;SDS011;51430;52.242;21.118;2022-09-09T13:45:24;28.00;;;19.40;;
33794;SDS011;51430;52.242;21.118;2022-09-09T13:47:54;25.10;;;19.30;;
33794;SDS011;51430;52.242;21.118;2022-09-09T13:52:57;29.10;;;20.20;;
33794;SDS011;51430;52.242;21.118;2022-09-09T13:55:27;25.70;;;20.30;;
33794;SDS011;51430;52.242;21.118;2022-09-09T13:57:58;26.20;;;19.90;;
33794;SDS011;51430;52.242;21.118;2022-09-09T14:00:32;26.30;;;19.30;;
33794;SDS011;51430;52.242;21.118;2022-09-09T14:03:02;25.50;;;19.80;;
33794;SDS011;51430;52.242;21.118;2022-09-09T14:05:31;28.60;;;21.00;;
33794;SDS011;51430;52.242;21.118;2022-09-09T14:08:04;30.30;;;19.70;;
33794;SDS011;51430;52.242;21.118;2022-09-09T14:10:35;38.30;;;20.90;;
33794;SDS011;51430;52.242;21.118;2022-09-09T14:13:04;27.50;;;19.90;;
33794;SDS011;51430;52.242;21.118;2022-09-09T14:15:32;30.30;;;20.60;;
33794;SDS011;51430;52.242;21.118;2022-09-09T14:18:00;28.30;;;20.60;;
33794;SDS011;51430;52.242;21.118;2022-09-09T14:20:30;29.40;;;20.70;;
33794;SDS011;51430;52.242;21.118;2022-09-09T14:22:58;29.50;;;20.30;;
33794;SDS011;51430;52.242;21.118;2022-09-09T14:25:30;28.10;;;20.30;;
33794;SDS011;51430;52.242;21.118;2022-09-09T14:27:59;28.20;;;20.30;;
33794;SDS011;51430;52.242;21.118;2022-09-09T14:30:28;28.20;;;21.00;;
33794;SDS011;51430;52.242;21.118;2022-09-09T14:32:56;27.60;;;22.20;;
33794;SDS011;51430;52.242;21.118;2022-09-09T14:35:24;30.10;;;21.50;;
33794;SDS011;51430;52.242;21.118;2022-09-09T14:37:52;30.10;;;21.10;;
33794;SDS011;51430;52.242;21.118;2022-09-09T14:40:20;31.70;;;21.00;;
33794;SDS011;51430;52.242;21.118;2022-09-09T14:42:49;26.70;;;21.00;;
33794;SDS011;51430;52.242;21.118;2022-09-09T14:45:17;32.20;;;22.60;;
33794;SDS011;51430;52.242;21.118;2022-09-09T14:47:45;27.80;;;21.10;;
33794;SDS011;51430;52.242;21.118;2022-09-09T14:50:13;29.20;;;21.20;;
33794;SDS011;51430;52.242;21.118;2022-09-09T14:52:42;31.50;;;21.70;;
33794;SDS011;51430;52.242;21.118;2022-09-09T14:55:10;26.00;;;20.50;;
33794;SDS011;51430;52.242;21.118;2022-09-09T14:57:39;25.00;;;20.20;;
33794;SDS011;51430;52.242;21.118;2022-09-09T15:00:08;26.90;;;20.90;;
33794;SDS011;51430;52.242;21.118;2022-09-09T15:02:41;32.40;;;21.30;;
33794;SDS011;51430;52.242;21.118;2022-09-09T15:05:09;27.20;;;20.20;;
33794;SDS011;51430;52.242;21.118;2022-09-09T15:07:38;31.60;;;21.70;;
33794;SDS011;51430;52.242;21.118;2022-09-09T15:10:07;31.30;;;21.30;;
33794;SDS011;51430;52.242;21.118;2022-09-09T15:12:35;32.30;;;20.90;;
33794;SDS011;51430;52.242;21.118;2022-09-09T15:15:04;32.20;;;21.20;;
33794;SDS011;51430;52.242;21.118;2022-09-09T15:17:33;32.50;;;22.10;;
33794;SDS011;51430;52.242;21.118;2022-09-09T15:20:02;35.00;;;21.90;;
33794;SDS011;51430;52.242;21.118;2022-09-09T15:22:33;28.50;;;21.10;;
33794;SDS011;51430;52.242;21.118;2022-09-09T15:25:01;34.80;;;21.70;;
33794;SDS011;51430;52.242;21.118;2022-09-09T15:27:30;27.00;;;20.90;;
33794;SDS011;51430;52.242;21.118;2022-09-09T15:29:59;30.60;;;21.30;;
33794;SDS011;51430;52.242;21.118;2022-09-09T15:32:28;30.30;;;21.90;;
33794;SDS011;51430;52.242;21.118;2022-09-09T15:34:57;30.60;;;22.40;;
33794;SDS011;51430;52.242;21.118;2022-09-09T15:37:25;26.60;;;20.90;;
33794;SDS011;51430;52.242;21.118;2022-09-09T15:39:53;30.50;;;21.50;;
33794;SDS011;51430;52.242;21.118;2022-09-09T15:42:21;26.50;;;21.10;;
33794;SDS011;51430;52.242;21.118;2022-09-09T15:44:50;26.50;;;20.20;;
33794;SDS011;51430;52.242;21.118;2022-09-09T15:47:18;29.60;;;21.70;;
33794;SDS011;51430;52.242;21.118;2022-09-09T15:49:46;28.90;;;20.90;;
33794;SDS011;51430;52.242;21.118;2022-09-09T15:52:15;29.10;;;20.80;;
33794;SDS011;51430;52.242;21.118;2022-09-09T15:54:43;24.20;;;19.40;;
33794;SDS011;51430;52.242;21.118;2022-09-09T15:57:12;31.30;;;20.70;;
33794;SDS011;51430;52.242;21.118;2022-09-09T15:59:41;28.40;;;19.70;;
33794;SDS011;51430;52.242;21.118;2022-09-09T16:02:09;30.30;;;20.30;;
33794;SDS011;51430;52.242;21.118;2022-09-09T16:04:38;29.10;;;20.20;;
33794;SDS011;51430;52.242;21.118;2022-09-09T16:07:06;25.60;;;20.20;;
33794;SDS011;51430;52.242;21.118;2022-09-09T16:09:35;29.30;;;20.60;;
33794;SDS011;51430;52.242;21.118;2022-09-09T16:12:03;26.70;;;20.40;;
33794;SDS011;51430;52.242;21.118;2022-09-09T16:14:37;28.70;;;20.10;;
33794;SDS011;51430;52.242;21.118;2022-09-09T16:17:06;24.90;;;18.90;;
33794;SDS011;51430;52.242;21.118;2022-09-09T16:19:35;25.00;;;19.90;;
33794;SDS011;51430;52.242;21.118;2022-09-09T16:22:04;24.10;;;19.60;;
33794;SDS011;51430;52.242;21.118;2022-09-09T16:24:34;26.60;;;19.90;;
33794;SDS011;51430;52.242;21.118;2022-09-09T16:27:02;31.20;;;20.10;;
33794;SDS011;51430;52.242;21.118;2022-09-09T16:29:31;28.00;;;20.40;;
33794;SDS011;51430;52.242;21.118;2022-09-09T16:31:59;24.40;;;19.60;;
33794;SDS011;51430;52.242;21.118;2022-09-09T16:34:31;29.90;;;21.10;;
33794;SDS011;51430;52.242;21.118;2022-09-09T16:37:01;29.20;;;21.00;;
33794;SDS011;51430;52.242;21.118;2022-09-09T16:39:30;24.90;;;20.50;;
33794;SDS011;51430;52.242;21.118;2022-09-09T16:41:58;26.00;;;19.70;;
33794;SDS011;51430;52.242;21.118;2022-09-09T16:44:27;27.20;;;19.80;;
33794;SDS011;51430;52.242;21.118;2022-09-09T16:46:56;24.00;;;18.90;;
33794;SDS011;51430;52.242;21.118;2022-09-09T16:49:27;25.40;;;20.30;;
33794;SDS011;51430;52.242;21.118;2022-09-09T16:51:58;24.40;;;19.00;;